createdAt,value
2022-08-22T00:00:13.314Z,22.89
2022-08-22T00:00:53.810Z,22.89
2022-08-22T00:01:39.960Z,22.92
2022-08-22T00:02:24.186Z,22.95
2022-08-22T00:02:43.198Z,25.78
2022-08-22T00:02:43.552Z,25.20
2022-08-22T00:02:45.173Z,27.07
2022-08-22T00:02:47.468Z,27.39
2022-08-22T00:02:55.135Z,24.14
2022-08-22T00:02:59.391Z,23.04
2022-08-22T00:02:59.809Z,26.11
2022-08-22T00:03:04.186Z,27.28
2022-08-22T00:03:04.349Z,25.74
2022-08-22T00:03:10.963Z,25.70
2022-08-22T00:03:12.457Z,24.46
2022-08-22T00:03:15.453Z,23.36
2022-08-22T00:03:22.753Z,22.90
2022-08-22T00:04:06.992Z,22.92
2022-08-22T00:04:45.570Z,22.95
2022-08-22T00:05:28.810Z,22.95
2022-08-22T00:06:13.496Z,22.96
2022-08-22T00:06:52.530Z,22.97
2022-08-22T00:07:46.377Z,22.97
2022-08-22T00:08:26.766Z,22.96
2022-08-22T00:09:05.967Z,22.87
2022-08-22T00:09:51.017Z,22.90
2022-08-22T00:10:28.063Z,22.91
2022-08-22T00:11:12.521Z,22.93
2022-08-22T00:11:50.402Z,22.93
2022-08-22T00:12:31.975Z,22.92
2022-08-22T00:13:11.006Z,22.90
2022-08-22T00:14:01.936Z,22.90
2022-08-22T00:14:40.489Z,22.85
2022-08-22T00:15:42.383Z,22.86
2022-08-22T00:16:21.165Z,22.82
2022-08-22T00:17:08.048Z,22.82
2022-08-22T00:17:47.474Z,22.83
2022-08-22T00:18:29.818Z,22.84
2022-08-22T00:19:12.305Z,22.84
2022-08-22T00:19:52.165Z,22.86
2022-08-22T00:20:29.175Z,22.88
2022-08-22T00:21:12.363Z,22.88
2022-08-22T00:21:51.609Z,22.88
2022-08-22T00:22:30.393Z,22.89
2022-08-22T00:23:12.309Z,22.90
2022-08-22T00:23:52.702Z,22.88
2022-08-22T00:24:27.004Z,22.80
2022-08-22T00:25:25.587Z,22.80
2022-08-22T00:26:03.084Z,22.79
2022-08-22T00:26:46.602Z,22.82
2022-08-22T00:27:23.757Z,22.83
2022-08-22T00:28:03.555Z,22.84
2022-08-22T00:28:43.386Z,22.83
2022-08-22T00:29:18.670Z,22.82
2022-08-22T00:29:57.348Z,22.84
2022-08-22T00:30:37.989Z,22.83
2022-08-22T00:31:15.720Z,22.73
2022-08-22T00:31:54.862Z,22.74
2022-08-22T00:32:36.311Z,22.77
2022-08-22T00:33:18.543Z,22.77
2022-08-22T00:33:56.607Z,22.77
2022-08-22T00:34:40.130Z,22.79
2022-08-22T00:35:32.513Z,22.77
2022-08-22T00:36:18.966Z,22.73
2022-08-22T00:36:56.846Z,22.72
2022-08-22T00:37:37.773Z,22.74
2022-08-22T00:38:16.474Z,22.73
2022-08-22T00:38:59.284Z,22.74
2022-08-22T00:39:38.774Z,22.74
2022-08-22T00:40:29.958Z,22.71
2022-08-22T00:41:07.622Z,22.70
2022-08-22T00:42:10.151Z,22.69
2022-08-22T00:42:59.971Z,22.67
2022-08-22T00:44:07.488Z,22.65
2022-08-22T00:45:03.186Z,22.64
2022-08-22T00:46:05.100Z,22.62
2022-08-22T00:47:03.828Z,22.62
2022-08-22T00:47:57.103Z,22.61
2022-08-22T00:49:04.919Z,22.59
2022-08-22T00:49:55.549Z,22.60
2022-08-22T00:50:52.040Z,22.58
2022-08-22T00:51:47.490Z,22.57
2022-08-22T00:52:44.454Z,22.56
2022-08-22T00:53:46.538Z,22.52
2022-08-22T00:54:30.605Z,22.54
2022-08-22T00:55:17.567Z,22.55
2022-08-22T00:56:09.544Z,22.54
2022-08-22T00:57:05.798Z,22.54
2022-08-22T00:58:03.944Z,22.51
2022-08-22T00:59:23.785Z,22.47
2022-08-22T01:00:09.572Z,22.45
2022-08-22T01:00:49.277Z,22.49
2022-08-22T01:01:30.345Z,22.51
2022-08-22T01:02:15.678Z,22.52
2022-08-22T01:03:13.228Z,22.51
2022-08-22T01:04:11.454Z,22.49
2022-08-22T01:05:19.133Z,22.49
2022-08-22T01:06:08.343Z,22.48
2022-08-22T01:06:52.659Z,22.49
2022-08-22T01:07:53.833Z,22.47
2022-08-22T01:08:45.581Z,22.45
2022-08-22T01:09:34.319Z,22.44
2022-08-22T01:10:32.361Z,22.43
2022-08-22T01:11:29.992Z,22.42
2022-08-22T01:12:26.669Z,22.40
2022-08-22T01:13:18.018Z,22.40
2022-08-22T01:14:15.742Z,22.38
2022-08-22T01:14:55.111Z,22.40
2022-08-22T01:15:30.874Z,22.41
2022-08-22T01:16:13.666Z,22.43
2022-08-22T01:17:08.174Z,22.42
2022-08-22T01:18:08.019Z,22.38
2022-08-22T01:19:09.210Z,22.34
2022-08-22T01:20:28.223Z,22.30
2022-08-22T01:21:44.666Z,22.27
2022-08-22T01:22:41.673Z,22.27
2022-08-22T01:23:56.463Z,22.22
2022-08-22T01:25:11.098Z,22.24
2022-08-22T01:26:20.382Z,22.20
2022-08-22T01:27:27.966Z,22.14
2022-08-22T01:28:33.690Z,22.13
2022-08-22T01:29:47.775Z,22.08
2022-08-22T01:30:42.113Z,22.07
2022-08-22T01:31:51.818Z,22.03
2022-08-22T01:33:01.767Z,22.01
2022-08-22T01:34:04.298Z,21.99
2022-08-22T01:35:01.705Z,21.98
2022-08-22T01:36:16.177Z,21.97
2022-08-22T01:37:18.596Z,21.93
2022-08-22T01:38:10.085Z,21.94
2022-08-22T01:38:59.353Z,21.94
2022-08-22T01:40:09.972Z,21.93
2022-08-22T01:41:12.047Z,21.89
2022-08-22T01:42:22.228Z,21.90
2022-08-22T01:43:09.441Z,21.88
2022-08-22T01:44:01.014Z,21.89
2022-08-22T01:45:02.941Z,21.88
2022-08-22T01:45:48.431Z,21.88
2022-08-22T01:46:34.114Z,21.88
2022-08-22T01:47:12.273Z,21.87
2022-08-22T01:47:56.265Z,21.88
2022-08-22T01:48:37.982Z,21.87
2022-08-22T01:49:18.236Z,21.88
2022-08-22T01:50:02.115Z,21.86
2022-08-22T01:50:39.747Z,21.86
2022-08-22T01:51:21.230Z,21.86
2022-08-22T01:52:02.834Z,21.87
2022-08-22T01:52:44.572Z,21.85
2022-08-22T01:53:24.343Z,21.86
2022-08-22T01:54:05.762Z,21.85
2022-08-22T01:54:51.912Z,21.85
2022-08-22T01:55:33.691Z,21.86
2022-08-22T01:56:13.002Z,21.88
2022-08-22T01:56:47.143Z,21.89
2022-08-22T01:57:19.741Z,21.92
2022-08-22T01:57:58.909Z,21.94
2022-08-22T01:58:37.301Z,21.94
2022-08-22T01:59:12.647Z,21.95
2022-08-22T01:59:50.689Z,21.97
2022-08-22T02:00:35.544Z,21.98
2022-08-22T02:01:24.215Z,21.96
2022-08-22T02:02:05.820Z,21.96
2022-08-22T02:02:57.074Z,21.96
2022-08-22T02:03:36.441Z,21.93
2022-08-22T02:04:14.872Z,21.96
2022-08-22T02:05:01.508Z,21.95
2022-08-22T02:05:42.612Z,21.93
2022-08-22T02:06:32.484Z,21.92
2022-08-22T02:07:14.553Z,21.89
2022-08-22T02:07:53.429Z,21.89
2022-08-22T02:08:33.042Z,21.89
2022-08-22T02:09:14.827Z,21.89
2022-08-22T02:10:01.372Z,21.89
2022-08-22T02:10:51.646Z,21.86
2022-08-22T02:11:43.972Z,21.83
2022-08-22T02:12:33.013Z,21.83
2022-08-22T02:13:19.881Z,21.84
2022-08-22T02:14:01.570Z,21.84
2022-08-22T02:14:44.155Z,21.85
2022-08-22T02:15:23.017Z,21.83
2022-08-22T02:16:09.495Z,21.82
2022-08-22T02:16:44.345Z,21.82
2022-08-22T02:17:23.638Z,21.83
2022-08-22T02:18:13.002Z,21.82
2022-08-22T02:18:54.493Z,21.81
2022-08-22T02:19:35.899Z,21.81
2022-08-22T02:20:23.617Z,21.79
2022-08-22T02:21:05.414Z,21.78
2022-08-22T02:21:45.533Z,21.79
2022-08-22T02:22:32.358Z,21.79
2022-08-22T02:23:17.904Z,21.80
2022-08-22T02:23:56.194Z,21.80
2022-08-22T02:24:50.313Z,21.80
2022-08-22T02:25:26.527Z,21.80
2022-08-22T02:26:10.215Z,21.82
2022-08-22T02:26:50.142Z,21.82
2022-08-22T02:27:33.318Z,21.81
2022-08-22T02:28:13.490Z,21.79
2022-08-22T02:28:58.038Z,21.76
2022-08-22T02:29:35.914Z,21.76
2022-08-22T02:30:14.993Z,21.75
2022-08-22T02:30:52.278Z,21.74
2022-08-22T02:31:35.495Z,21.72
2022-08-22T02:32:21.666Z,21.69
2022-08-22T02:33:03.256Z,21.68
2022-08-22T02:33:47.817Z,21.68
2022-08-22T02:34:39.864Z,21.62
2022-08-22T02:35:24.373Z,21.59
2022-08-22T02:36:05.097Z,21.59
2022-08-22T02:36:46.918Z,21.58
2022-08-22T02:37:34.735Z,21.58
2022-08-22T02:38:24.257Z,21.56
2022-08-22T02:39:06.549Z,21.53
2022-08-22T02:39:44.653Z,21.53
2022-08-22T02:40:31.254Z,21.53
2022-08-22T02:41:14.426Z,21.53
2022-08-22T02:41:53.393Z,21.52
2022-08-22T02:42:38.229Z,21.53
2022-08-22T02:43:19.277Z,21.53
2022-08-22T02:43:57.066Z,21.52
2022-08-22T02:44:37.895Z,21.52
2022-08-22T02:45:21.299Z,21.50
2022-08-22T02:46:03.613Z,21.50
2022-08-22T02:46:49.694Z,21.50
2022-08-22T02:47:32.168Z,21.47
2022-08-22T02:48:14.335Z,21.48
2022-08-22T02:49:11.856Z,21.44
2022-08-22T02:49:53.689Z,21.44
2022-08-22T02:50:41.055Z,21.44
2022-08-22T02:51:19.627Z,21.42
2022-08-22T02:52:02.302Z,21.44
2022-08-22T02:52:45.808Z,21.42
2022-08-22T02:53:22.250Z,21.40
2022-08-22T02:54:17.108Z,21.39
2022-08-22T02:54:56.588Z,21.36
2022-08-22T02:55:42.532Z,21.34
2022-08-22T02:56:24.543Z,21.33
2022-08-22T02:57:03.493Z,21.32
2022-08-22T02:57:40.627Z,21.33
2022-08-22T02:58:25.975Z,21.35
2022-08-22T02:59:13.693Z,21.33
2022-08-22T03:00:31.290Z,21.30
2022-08-22T03:01:24.253Z,21.25
2022-08-22T03:01:57.018Z,21.26
2022-08-22T03:02:36.579Z,21.29
2022-08-22T03:03:20.194Z,21.29
2022-08-22T03:04:18.101Z,21.26
2022-08-22T03:04:55.785Z,21.26
2022-08-22T03:05:41.799Z,21.28
2022-08-22T03:06:36.786Z,21.25
2022-08-22T03:07:16.843Z,21.24
2022-08-22T03:07:59.813Z,21.25
2022-08-22T03:08:35.647Z,21.25
2022-08-22T03:09:25.024Z,21.26
2022-08-22T03:10:08.952Z,21.26
2022-08-22T03:10:45.862Z,21.27
2022-08-22T03:11:24.127Z,21.30
2022-08-22T03:12:08.375Z,21.30
2022-08-22T03:12:48.261Z,21.31
2022-08-22T03:13:38.159Z,21.29
2022-08-22T03:14:16.222Z,21.27
2022-08-22T03:15:01.045Z,21.28
2022-08-22T03:15:48.455Z,21.28
2022-08-22T03:16:28.855Z,21.26
2022-08-22T03:17:06.458Z,21.27
2022-08-22T03:17:50.781Z,21.28
2022-08-22T03:18:35.245Z,21.27
2022-08-22T03:19:30.382Z,21.32
2022-08-22T03:20:10.086Z,21.25
2022-08-22T03:20:48.987Z,21.27
2022-08-22T03:21:32.337Z,21.28
2022-08-22T03:22:12.516Z,21.28
2022-08-22T03:22:49.227Z,21.29
2022-08-22T03:23:37.156Z,21.29
2022-08-22T03:24:14.297Z,21.28
2022-08-22T03:24:52.911Z,21.30
2022-08-22T03:25:38.185Z,21.30
2022-08-22T03:26:17.496Z,21.29
2022-08-22T03:26:52.497Z,21.29
2022-08-22T03:27:32.576Z,21.30
2022-08-22T03:28:12.013Z,21.28
2022-08-22T03:28:58.941Z,21.30
2022-08-22T03:29:36.903Z,21.28
2022-08-22T03:30:19.335Z,21.28
2022-08-22T03:31:08.315Z,21.27
2022-08-22T03:32:08.457Z,21.23
2022-08-22T03:32:54.770Z,21.22
2022-08-22T03:33:32.533Z,21.25
2022-08-22T03:34:21.470Z,21.27
2022-08-22T03:35:02.049Z,21.29
2022-08-22T03:35:51.465Z,21.29
2022-08-22T03:36:33.271Z,21.28
2022-08-22T03:37:15.682Z,21.30
2022-08-22T03:37:53.752Z,21.31
2022-08-22T03:38:30.789Z,21.34
2022-08-22T03:39:17.330Z,21.35
2022-08-22T03:40:02.872Z,21.35
2022-08-22T03:40:49.819Z,21.35
2022-08-22T03:41:52.671Z,21.35
2022-08-22T03:43:04.169Z,21.33
2022-08-22T03:44:00.941Z,21.34
2022-08-22T03:45:15.791Z,21.32
2022-08-22T03:46:18.446Z,21.33
2022-08-22T03:47:07.747Z,21.34
2022-08-22T03:48:15.915Z,21.31
2022-08-22T03:49:31.660Z,21.26
2022-08-22T03:50:42.445Z,21.24
2022-08-22T03:51:20.961Z,21.15
2022-08-22T03:52:15.613Z,21.17
2022-08-22T03:53:31.106Z,21.19
2022-08-22T03:54:35.475Z,21.16
2022-08-22T03:55:21.171Z,21.17
2022-08-22T03:56:40.787Z,21.17
2022-08-22T03:57:43.627Z,21.15
2022-08-22T03:58:47.162Z,21.15
2022-08-22T03:59:51.545Z,21.15
2022-08-22T04:00:56.007Z,21.16
2022-08-22T04:02:03.717Z,21.15
2022-08-22T04:03:29.222Z,21.17
2022-08-22T04:04:34.585Z,21.15
2022-08-22T04:05:48.003Z,21.14
2022-08-22T04:06:56.558Z,21.14
2022-08-22T04:08:04.323Z,21.14
2022-08-22T04:09:06.250Z,21.16
2022-08-22T04:10:18.763Z,21.18
2022-08-22T04:11:04.361Z,21.21
2022-08-22T04:12:10.648Z,21.23
2022-08-22T04:12:56.111Z,21.24
2022-08-22T04:13:52.887Z,21.24
2022-08-22T04:14:42.049Z,21.26
2022-08-22T04:15:39.645Z,21.28
2022-08-22T04:16:40.138Z,21.27
2022-08-22T04:17:33.465Z,21.26
2022-08-22T04:18:44.448Z,21.26
2022-08-22T04:19:39.193Z,21.24
2022-08-22T04:20:47.079Z,21.22
2022-08-22T04:21:42.247Z,21.23
2022-08-22T04:22:39.405Z,21.27
2022-08-22T04:23:42.344Z,21.27
2022-08-22T04:24:34.328Z,21.31
2022-08-22T04:25:18.295Z,21.34
2022-08-22T04:25:55.747Z,21.36
2022-08-22T04:26:41.633Z,21.36
2022-08-22T04:27:23.839Z,21.38
2022-08-22T04:28:06.392Z,21.40
2022-08-22T04:28:46.528Z,21.43
2022-08-22T04:29:23.393Z,21.44
2022-08-22T04:30:02.248Z,21.46
2022-08-22T04:30:42.833Z,21.47
2022-08-22T04:31:19.153Z,21.46
2022-08-22T04:31:57.741Z,21.48
2022-08-22T04:32:38.988Z,21.49
2022-08-22T04:33:17.892Z,21.49
2022-08-22T04:33:54.371Z,21.51
2022-08-22T04:34:34.743Z,21.53
2022-08-22T04:35:09.176Z,21.43
2022-08-22T04:35:54.247Z,21.46
2022-08-22T04:36:35.179Z,21.49
2022-08-22T04:37:14.728Z,21.52
2022-08-22T04:37:56.479Z,21.51
2022-08-22T04:38:34.097Z,21.51
2022-08-22T04:39:13.173Z,21.54
2022-08-22T04:39:54.134Z,21.55
2022-08-22T04:40:34.745Z,21.55
2022-08-22T04:41:12.522Z,21.57
2022-08-22T04:41:52.933Z,21.58
2022-08-22T04:42:32.605Z,21.50
2022-08-22T04:43:19.965Z,21.53
2022-08-22T04:44:00.562Z,21.55
2022-08-22T04:44:39.431Z,21.58
2022-08-22T04:45:20.085Z,21.61
2022-08-22T04:45:59.144Z,21.63
2022-08-22T04:46:37.327Z,21.65
2022-08-22T04:47:21.562Z,21.67
2022-08-22T04:48:02.744Z,21.67
2022-08-22T04:48:41.678Z,21.67
2022-08-22T04:49:27.195Z,21.68
2022-08-22T04:50:06.295Z,21.69
2022-08-22T04:50:44.155Z,21.71
2022-08-22T04:51:27.517Z,21.73
2022-08-22T04:52:09.633Z,21.73
2022-08-22T04:52:56.605Z,21.75
2022-08-22T04:53:55.102Z,21.72
2022-08-22T04:54:41.414Z,21.72
2022-08-22T04:55:25.449Z,21.73
2022-08-22T04:56:08.023Z,21.75
2022-08-22T04:56:57.803Z,21.78
2022-08-22T04:57:38.579Z,21.79
2022-08-22T04:58:27.275Z,21.80
2022-08-22T04:59:03.786Z,21.81
2022-08-22T04:59:39.444Z,21.85
2022-08-22T05:00:13.773Z,21.86
2022-08-22T05:00:54.511Z,21.88
2022-08-22T05:01:44.606Z,21.87
2022-08-22T05:02:22.779Z,21.87
2022-08-22T05:02:58.191Z,21.89
2022-08-22T05:03:36.000Z,21.93
2022-08-22T05:04:10.898Z,21.93
2022-08-22T05:04:50.317Z,21.95
2022-08-22T05:05:27.273Z,21.97
2022-08-22T05:06:03.619Z,22.00
2022-08-22T05:06:45.002Z,22.01
2022-08-22T05:07:21.271Z,22.03
2022-08-22T05:07:58.589Z,22.05
2022-08-22T05:08:37.306Z,22.04
2022-08-22T05:09:16.556Z,22.04
2022-08-22T05:09:54.061Z,22.05
2022-08-22T05:10:31.930Z,22.06
2022-08-22T05:11:10.680Z,22.07
2022-08-22T05:11:43.642Z,22.07
2022-08-22T05:12:23.786Z,22.09
2022-08-22T05:13:02.890Z,22.09
2022-08-22T05:13:39.963Z,22.10
2022-08-22T05:14:20.948Z,22.12
2022-08-22T05:14:58.451Z,22.13
2022-08-22T05:15:34.431Z,22.15
2022-08-22T05:16:15.220Z,22.17
2022-08-22T05:16:52.154Z,22.17
2022-08-22T05:17:28.011Z,22.18
2022-08-22T05:18:08.482Z,22.21
2022-08-22T05:18:45.516Z,22.22
2022-08-22T05:19:29.680Z,22.24
2022-08-22T05:20:11.744Z,22.24
2022-08-22T05:20:49.249Z,22.25
2022-08-22T05:21:31.516Z,22.29
2022-08-22T05:22:06.374Z,22.28
2022-08-22T05:22:43.443Z,22.31
2022-08-22T05:23:24.647Z,22.32
2022-08-22T05:24:01.924Z,22.33
2022-08-22T05:24:38.796Z,22.32
2022-08-22T05:25:16.641Z,22.32
2022-08-22T05:25:53.151Z,22.31
2022-08-22T05:26:34.622Z,22.32
2022-08-22T05:27:13.997Z,22.22
2022-08-22T05:27:49.709Z,22.24
2022-08-22T05:28:33.952Z,22.28
2022-08-22T05:29:10.891Z,22.29
2022-08-22T05:29:47.353Z,22.32
2022-08-22T05:30:23.985Z,22.33
2022-08-22T05:30:59.686Z,22.34
2022-08-22T05:31:35.280Z,22.36
2022-08-22T05:32:22.093Z,22.37
2022-08-22T05:33:04.239Z,22.33
2022-08-22T05:33:41.820Z,22.32
2022-08-22T05:34:20.863Z,22.32
2022-08-22T05:34:58.522Z,22.32
2022-08-22T05:35:37.764Z,22.30
2022-08-22T05:36:16.447Z,22.31
2022-08-22T05:36:54.518Z,22.31
2022-08-22T05:37:37.569Z,22.30
2022-08-22T05:38:17.072Z,22.30
2022-08-22T05:38:54.827Z,22.32
2022-08-22T05:39:31.229Z,22.36
2022-08-22T05:40:04.750Z,22.39
2022-08-22T05:40:38.005Z,22.40
2022-08-22T05:41:20.249Z,22.44
2022-08-22T05:41:57.088Z,22.46
2022-08-22T05:42:37.589Z,22.48
2022-08-22T05:43:12.197Z,22.50
2022-08-22T05:43:45.938Z,22.52
2022-08-22T05:44:23.496Z,22.55
2022-08-22T05:44:56.186Z,22.57
2022-08-22T05:45:29.560Z,22.61
2022-08-22T05:46:09.984Z,22.64
2022-08-22T05:46:44.779Z,22.63
2022-08-22T05:47:22.798Z,22.65
2022-08-22T05:48:06.012Z,22.67
2022-08-22T05:48:43.644Z,22.68
2022-08-22T05:49:19.578Z,22.69
2022-08-22T05:50:02.254Z,22.71
2022-08-22T05:50:39.884Z,22.71
2022-08-22T05:51:21.699Z,22.70
2022-08-22T05:52:05.566Z,22.71
2022-08-22T05:53:00.954Z,22.71
2022-08-22T05:53:38.023Z,22.70
2022-08-22T05:54:20.606Z,22.72
2022-08-22T05:54:57.469Z,22.75
2022-08-22T05:55:32.944Z,22.80
2022-08-22T05:56:13.547Z,22.84
2022-08-22T05:56:51.593Z,22.87
2022-08-22T05:57:32.810Z,22.90
2022-08-22T05:58:29.389Z,22.95
2022-08-22T05:59:08.587Z,23.00
2022-08-22T05:59:47.875Z,23.08
2022-08-22T06:00:22.742Z,23.13
2022-08-22T06:01:00.867Z,23.16
2022-08-22T06:01:40.425Z,23.21
2022-08-22T06:02:20.465Z,23.25
2022-08-22T06:03:04.948Z,23.27
2022-08-22T06:03:41.534Z,23.29
2022-08-22T06:04:23.874Z,23.32
2022-08-22T06:05:02.011Z,23.33
2022-08-22T06:05:40.333Z,23.34
2022-08-22T06:06:19.284Z,23.34
2022-08-22T06:06:56.656Z,23.35
2022-08-22T06:07:37.126Z,23.34
2022-08-22T06:08:20.478Z,23.33
2022-08-22T06:08:59.260Z,23.32
2022-08-22T06:09:37.518Z,23.32
2022-08-22T06:10:23.099Z,23.31
2022-08-22T06:11:00.290Z,23.31
2022-08-22T06:11:40.087Z,23.33
2022-08-22T06:12:21.811Z,23.31
2022-08-22T06:13:05.739Z,23.33
2022-08-22T06:13:52.192Z,23.33
2022-08-22T06:14:34.463Z,23.34
2022-08-22T06:15:15.317Z,23.36
2022-08-22T06:15:55.282Z,23.36
2022-08-22T06:16:40.719Z,23.38
2022-08-22T06:17:25.573Z,23.37
2022-08-22T06:18:05.309Z,23.41
2022-08-22T06:18:40.646Z,23.42
2022-08-22T06:19:19.819Z,23.45
2022-08-22T06:19:57.199Z,23.48
2022-08-22T06:20:33.778Z,23.51
2022-08-22T06:21:10.927Z,23.52
2022-08-22T06:21:48.282Z,23.53
2022-08-22T06:22:24.392Z,23.55
2022-08-22T06:23:03.770Z,23.55
2022-08-22T06:23:50.838Z,23.54
2022-08-22T06:24:27.976Z,23.53
2022-08-22T06:25:12.903Z,23.52
2022-08-22T06:25:50.534Z,23.53
2022-08-22T06:26:24.890Z,23.53
2022-08-22T06:27:04.659Z,23.57
2022-08-22T06:27:40.021Z,23.57
2022-08-22T06:28:22.900Z,23.59
2022-08-22T06:28:59.940Z,23.61
2022-08-22T06:29:39.101Z,23.63
2022-08-22T06:30:14.758Z,23.65
2022-08-22T06:30:49.626Z,23.67
2022-08-22T06:31:31.592Z,23.68
2022-08-22T06:32:11.676Z,23.69
2022-08-22T06:32:59.482Z,23.69
2022-08-22T06:33:38.601Z,23.67
2022-08-22T06:34:13.649Z,23.70
2022-08-22T06:34:50.180Z,23.71
2022-08-22T06:35:28.266Z,23.72
2022-08-22T06:36:20.522Z,23.74
2022-08-22T06:36:59.576Z,23.71
2022-08-22T06:37:39.575Z,23.71
2022-08-22T06:38:12.460Z,23.71
2022-08-22T06:38:59.082Z,23.72
2022-08-22T06:39:34.466Z,23.71
2022-08-22T06:40:13.699Z,23.73
2022-08-22T06:40:46.105Z,23.73
2022-08-22T06:41:22.261Z,23.75
2022-08-22T06:42:02.991Z,23.77
2022-08-22T06:42:41.116Z,23.77
2022-08-22T06:43:19.455Z,23.78
2022-08-22T06:43:53.399Z,23.79
2022-08-22T06:44:30.595Z,23.81
2022-08-22T06:45:11.374Z,23.84
2022-08-22T06:45:43.804Z,23.85
2022-08-22T06:46:16.992Z,23.89
2022-08-22T06:46:55.595Z,23.92
2022-08-22T06:47:31.355Z,23.94
2022-08-22T06:48:18.302Z,23.97
2022-08-22T06:48:51.487Z,23.98
2022-08-22T06:49:29.554Z,24.00
2022-08-22T06:50:06.330Z,24.04
2022-08-22T06:50:49.233Z,24.03
2022-08-22T06:51:27.799Z,24.07
2022-08-22T06:52:02.459Z,24.08
2022-08-22T06:52:42.799Z,24.10
2022-08-22T06:53:17.059Z,24.05
2022-08-22T06:53:53.901Z,24.09
2022-08-22T06:54:34.509Z,24.13
2022-08-22T06:55:09.633Z,24.15
2022-08-22T06:55:47.823Z,24.18
2022-08-22T06:56:26.003Z,24.19
2022-08-22T06:56:59.119Z,24.22
2022-08-22T06:57:42.029Z,24.23
2022-08-22T06:58:20.820Z,24.23
2022-08-22T06:58:57.518Z,24.24
2022-08-22T06:59:35.434Z,24.24
2022-08-22T07:00:13.492Z,24.26
2022-08-22T07:00:56.289Z,24.26
2022-08-22T07:01:50.768Z,24.25
2022-08-22T07:02:31.024Z,24.26
2022-08-22T07:03:10.270Z,24.30
2022-08-22T07:03:49.227Z,24.31
2022-08-22T07:04:26.642Z,24.34
2022-08-22T07:04:59.430Z,24.34
2022-08-22T07:05:39.822Z,24.36
2022-08-22T07:06:16.226Z,24.37
2022-08-22T07:06:50.803Z,24.38
2022-08-22T07:07:29.530Z,24.41
2022-08-22T07:08:07.128Z,24.42
2022-08-22T07:08:40.130Z,24.43
2022-08-22T07:09:25.063Z,24.45
2022-08-22T07:09:57.752Z,24.42
2022-08-22T07:10:32.546Z,24.45
2022-08-22T07:11:14.909Z,24.46
2022-08-22T07:11:50.095Z,24.47
2022-08-22T07:12:26.862Z,24.46
2022-08-22T07:13:04.582Z,24.46
2022-08-22T07:13:45.031Z,24.47
2022-08-22T07:14:25.576Z,24.46
2022-08-22T07:15:13.708Z,24.46
2022-08-22T07:15:53.771Z,24.47
2022-08-22T07:16:34.757Z,24.48
2022-08-22T07:17:09.315Z,24.47
2022-08-22T07:17:52.440Z,24.48
2022-08-22T07:18:27.698Z,24.48
2022-08-22T07:19:00.748Z,24.49
2022-08-22T07:19:39.673Z,24.52
2022-08-22T07:20:24.136Z,24.56
2022-08-22T07:20:59.477Z,24.56
2022-08-22T07:21:45.922Z,24.60
2022-08-22T07:22:24.376Z,24.62
2022-08-22T07:23:02.010Z,24.65
2022-08-22T07:23:38.360Z,24.68
2022-08-22T07:24:17.311Z,24.72
2022-08-22T07:24:59.886Z,24.75
2022-08-22T07:25:39.031Z,24.78
2022-08-22T07:26:21.835Z,24.86
2022-08-22T07:27:09.960Z,24.85
2022-08-22T07:27:53.761Z,24.87
2022-08-22T07:28:51.166Z,24.89
2022-08-22T07:29:41.046Z,24.88
2022-08-22T07:30:28.217Z,24.90
2022-08-22T07:31:07.222Z,24.93
2022-08-22T07:31:49.411Z,24.95
2022-08-22T07:32:28.206Z,24.96
2022-08-22T07:33:25.769Z,24.98
2022-08-22T07:34:11.917Z,24.96
2022-08-22T07:34:58.634Z,24.98
2022-08-22T07:35:35.790Z,24.99
2022-08-22T07:36:23.012Z,25.01
2022-08-22T07:37:05.781Z,25.02
2022-08-22T07:37:52.092Z,25.05
2022-08-22T07:38:42.838Z,25.06
2022-08-22T07:39:25.527Z,25.07
2022-08-22T07:40:10.358Z,25.08
2022-08-22T07:40:51.761Z,25.09
2022-08-22T07:41:34.738Z,25.11
2022-08-22T07:42:14.899Z,25.11
2022-08-22T07:42:54.770Z,25.15
2022-08-22T07:43:32.357Z,25.15
2022-08-22T07:44:16.411Z,25.16
2022-08-22T07:45:03.409Z,25.16
2022-08-22T07:45:43.305Z,25.20
2022-08-22T07:46:28.761Z,25.21
2022-08-22T07:47:09.747Z,25.22
2022-08-22T07:47:55.035Z,25.23
2022-08-22T07:48:33.992Z,25.24
2022-08-22T07:49:21.472Z,25.26
2022-08-22T07:50:02.933Z,25.28
2022-08-22T07:50:37.626Z,25.30
2022-08-22T07:51:14.984Z,25.32
2022-08-22T07:51:54.841Z,25.33
2022-08-22T07:52:40.746Z,25.34
2022-08-22T07:53:26.685Z,25.35
2022-08-22T07:54:04.756Z,25.35
2022-08-22T07:54:41.679Z,25.38
2022-08-22T07:55:22.702Z,25.41
2022-08-22T07:55:56.683Z,25.42
2022-08-22T07:56:35.205Z,25.44
2022-08-22T07:57:12.934Z,25.45
2022-08-22T07:57:48.439Z,25.45
2022-08-22T07:58:27.110Z,25.45
2022-08-22T07:59:12.985Z,25.46
2022-08-22T07:59:51.058Z,25.45
2022-08-22T08:00:27.243Z,25.48
2022-08-22T08:01:00.426Z,25.49
2022-08-22T08:01:36.373Z,25.52
2022-08-22T08:02:12.784Z,25.53
2022-08-22T08:02:48.214Z,25.53
2022-08-22T08:03:25.804Z,25.53
2022-08-22T08:04:01.656Z,25.55
2022-08-22T08:04:40.587Z,25.57
2022-08-22T08:05:14.756Z,25.59
2022-08-22T08:05:47.541Z,25.60
2022-08-22T08:06:24.743Z,25.64
2022-08-22T08:06:59.576Z,25.67
2022-08-22T08:07:35.754Z,25.69
2022-08-22T08:08:13.860Z,25.70
2022-08-22T08:08:48.283Z,25.72
2022-08-22T08:09:24.287Z,25.75
2022-08-22T08:10:01.665Z,25.78
2022-08-22T08:10:37.469Z,25.79
2022-08-22T08:11:16.125Z,25.83
2022-08-22T08:11:53.330Z,25.83
2022-08-22T08:12:33.090Z,25.84
2022-08-22T08:13:09.706Z,25.84
2022-08-22T08:13:47.945Z,25.86
2022-08-22T08:14:22.349Z,25.86
2022-08-22T08:14:56.807Z,25.89
2022-08-22T08:15:39.405Z,25.91
2022-08-22T08:16:18.001Z,25.92
2022-08-22T08:17:00.648Z,25.93
2022-08-22T08:17:35.562Z,25.94
2022-08-22T08:18:19.425Z,25.96
2022-08-22T08:18:56.778Z,25.97
2022-08-22T08:19:32.933Z,25.98
2022-08-22T08:20:09.496Z,26.00
2022-08-22T08:20:44.445Z,26.00
2022-08-22T08:21:26.254Z,26.02
2022-08-22T08:22:02.282Z,26.04
2022-08-22T08:22:35.639Z,26.05
2022-08-22T08:23:10.685Z,26.05
2022-08-22T08:23:49.598Z,26.09
2022-08-22T08:24:26.130Z,26.10
2022-08-22T08:25:03.316Z,26.10
2022-08-22T08:25:53.875Z,26.09
2022-08-22T08:26:35.014Z,26.09
2022-08-22T08:27:31.638Z,26.12
2022-08-22T08:28:20.036Z,26.12
2022-08-22T08:28:57.379Z,26.13
2022-08-22T08:29:31.040Z,26.17
2022-08-22T08:30:15.443Z,26.20
2022-08-22T08:30:59.707Z,26.21
2022-08-22T08:31:43.145Z,26.24
2022-08-22T08:32:17.680Z,26.25
2022-08-22T08:32:57.459Z,26.28
2022-08-22T08:33:53.659Z,26.28
2022-08-22T08:34:30.206Z,26.32
2022-08-22T08:35:09.895Z,26.33
2022-08-22T08:36:02.550Z,26.35
2022-08-22T08:36:42.298Z,26.37
2022-08-22T08:37:23.064Z,26.37
2022-08-22T08:38:00.933Z,26.39
2022-08-22T08:38:40.755Z,26.40
2022-08-22T08:39:22.563Z,26.39
2022-08-22T08:39:58.270Z,26.39
2022-08-22T08:40:55.549Z,26.39
2022-08-22T08:42:14.638Z,26.39
2022-08-22T08:43:21.193Z,26.41
2022-08-22T08:44:08.729Z,26.43
2022-08-22T08:45:16.097Z,26.46
2022-08-22T08:46:09.467Z,26.50
2022-08-22T08:47:04.703Z,26.54
2022-08-22T08:48:03.093Z,26.58
2022-08-22T08:49:09.700Z,26.60
2022-08-22T08:50:09.614Z,26.64
2022-08-22T08:51:11.029Z,26.69
2022-08-22T08:51:59.501Z,26.73
2022-08-22T08:52:52.854Z,26.78
2022-08-22T08:54:09.205Z,26.83
2022-08-22T08:55:00.354Z,26.88
2022-08-22T08:55:51.271Z,26.90
2022-08-22T08:56:32.579Z,26.93
2022-08-22T08:57:18.310Z,26.97
2022-08-22T08:59:09.956Z,26.97
2022-08-22T08:59:51.634Z,26.98
2022-08-22T09:00:35.646Z,26.99
2022-08-22T09:01:36.503Z,27.00
2022-08-22T09:02:34.782Z,27.00
2022-08-22T09:04:42.631Z,27.02
2022-08-22T09:05:41.715Z,27.02
2022-08-22T09:06:42.559Z,27.04
2022-08-22T09:07:37.833Z,27.07
2022-08-22T09:08:43.206Z,27.10
2022-08-22T09:09:33.097Z,27.13
2022-08-22T09:10:29.437Z,27.16
2022-08-22T09:11:38.480Z,27.19
2022-08-22T09:12:30.622Z,27.21
2022-08-22T09:13:34.575Z,27.23
2022-08-22T09:14:29.675Z,27.26
2022-08-22T09:15:14.430Z,27.29
2022-08-22T09:16:04.700Z,27.32
2022-08-22T09:16:58.951Z,27.35
2022-08-22T09:18:13.515Z,27.38
2022-08-22T09:19:24.737Z,27.40
2022-08-22T09:20:23.226Z,27.43
2022-08-22T09:21:42.328Z,27.48
2022-08-22T09:22:50.660Z,27.53
2022-08-22T09:23:56.004Z,27.56
2022-08-22T09:25:06.425Z,27.58
2022-08-22T09:25:44.903Z,27.61
2022-08-22T09:26:29.334Z,27.65
2022-08-22T09:27:08.721Z,27.70